Terminal Aerodrome Forecast
Issued by NWS

Home | Current Version | Previous Version | Text Only | Print | Product List | Glossary On
Versions: 1 2 3 4 5 6 7 8 9 10 11 12 13
000
FTUS43 KOAX 221148
TAFSNY
TAF
KSNY 221148Z 2212/2312 31020G28KT P6SM BKN100
     FM221700 32025G40KT P6SM SCT050 BKN100
     FM230500 33028G40KT 6SM -SN BKN025 OVC050=

USA.gov is the U.S. government's official web portal to all federal, state and local government web resources and services.